sensor_id;sensor_type;location;lat;lon;timestamp;P1;durP1;ratioP1;P2;durP2;ratioP2
36855;SDS011;22788;51.434;6.786;2023-06-10T00:00:44;6.95;;;6.25;;
36855;SDS011;22788;51.434;6.786;2023-06-10T00:03:10;6.82;;;6.10;;
36855;SDS011;22788;51.434;6.786;2023-06-10T00:05:35;7.07;;;6.22;;
36855;SDS011;22788;51.434;6.786;2023-06-10T00:08:01;8.38;;;6.55;;
36855;SDS011;22788;51.434;6.786;2023-06-10T00:10:27;7.22;;;6.53;;
36855;SDS011;22788;51.434;6.786;2023-06-10T00:12:54;6.63;;;6.13;;
36855;SDS011;22788;51.434;6.786;2023-06-10T00:15:19;8.68;;;6.43;;
36855;SDS011;22788;51.434;6.786;2023-06-10T00:17:45;7.30;;;6.60;;
36855;SDS011;22788;51.434;6.786;2023-06-10T00:20:11;7.00;;;6.28;;
36855;SDS011;22788;51.434;6.786;2023-06-10T00:22:37;7.75;;;6.90;;
36855;SDS011;22788;51.434;6.786;2023-06-10T00:25:03;6.75;;;6.15;;
36855;SDS011;22788;51.434;6.786;2023-06-10T00:27:29;6.57;;;5.57;;
36855;SDS011;22788;51.434;6.786;2023-06-10T00:29:56;6.82;;;6.22;;
36855;SDS011;22788;51.434;6.786;2023-06-10T00:32:22;7.18;;;6.43;;
36855;SDS011;22788;51.434;6.786;2023-06-10T00:34:47;7.32;;;6.18;;
36855;SDS011;22788;51.434;6.786;2023-06-10T00:37:13;7.90;;;7.10;;
36855;SDS011;22788;51.434;6.786;2023-06-10T00:39:39;7.72;;;7.00;;
36855;SDS011;22788;51.434;6.786;2023-06-10T00:42:04;7.65;;;6.95;;
36855;SDS011;22788;51.434;6.786;2023-06-10T00:44:31;7.45;;;6.75;;
36855;SDS011;22788;51.434;6.786;2023-06-10T00:46:58;8.02;;;6.72;;
36855;SDS011;22788;51.434;6.786;2023-06-10T00:49:23;7.35;;;6.65;;
36855;SDS011;22788;51.434;6.786;2023-06-10T00:51:49;7.53;;;6.80;;
36855;SDS011;22788;51.434;6.786;2023-06-10T00:54:16;8.50;;;7.05;;
36855;SDS011;22788;51.434;6.786;2023-06-10T00:56:42;7.68;;;6.97;;
36855;SDS011;22788;51.434;6.786;2023-06-10T00:59:08;7.35;;;6.30;;
36855;SDS011;22788;51.434;6.786;2023-06-10T01:01:34;7.47;;;6.78;;
36855;SDS011;22788;51.434;6.786;2023-06-10T01:04:01;7.20;;;6.50;;
36855;SDS011;22788;51.434;6.786;2023-06-10T01:06:30;7.40;;;6.70;;
36855;SDS011;22788;51.434;6.786;2023-06-10T01:09:02;10.40;;;6.70;;
36855;SDS011;22788;51.434;6.786;2023-06-10T01:11:41;9.90;;;6.70;;
36855;SDS011;22788;51.434;6.786;2023-06-10T01:14:12;9.05;;;6.80;;
36855;SDS011;22788;51.434;6.786;2023-06-10T01:16:38;8.05;;;7.10;;
36855;SDS011;22788;51.434;6.786;2023-06-10T01:19:05;7.47;;;6.57;;
36855;SDS011;22788;51.434;6.786;2023-06-10T01:21:32;10.35;;;7.55;;
36855;SDS011;22788;51.434;6.786;2023-06-10T01:23:58;8.85;;;7.43;;
36855;SDS011;22788;51.434;6.786;2023-06-10T01:26:25;7.65;;;6.85;;
36855;SDS011;22788;51.434;6.786;2023-06-10T01:28:57;6.93;;;6.32;;
36855;SDS011;22788;51.434;6.786;2023-06-10T01:31:28;7.85;;;7.00;;
36855;SDS011;22788;51.434;6.786;2023-06-10T01:33:57;8.80;;;7.45;;
36855;SDS011;22788;51.434;6.786;2023-06-10T01:36:23;8.13;;;7.32;;
36855;SDS011;22788;51.434;6.786;2023-06-10T01:38:51;7.85;;;7.07;;
36855;SDS011;22788;51.434;6.786;2023-06-10T01:41:18;9.40;;;7.18;;
36855;SDS011;22788;51.434;6.786;2023-06-10T01:43:45;8.40;;;7.38;;
36855;SDS011;22788;51.434;6.786;2023-06-10T01:46:10;7.45;;;6.82;;
36855;SDS011;22788;51.434;6.786;2023-06-10T01:48:36;7.97;;;7.20;;
36855;SDS011;22788;51.434;6.786;2023-06-10T01:51:02;9.13;;;7.70;;
36855;SDS011;22788;51.434;6.786;2023-06-10T01:53:28;7.65;;;6.95;;
36855;SDS011;22788;51.434;6.786;2023-06-10T01:55:55;8.38;;;7.22;;
36855;SDS011;22788;51.434;6.786;2023-06-10T01:58:21;8.63;;;7.78;;
36855;SDS011;22788;51.434;6.786;2023-06-10T02:00:46;8.40;;;7.50;;
36855;SDS011;22788;51.434;6.786;2023-06-10T02:03:12;7.78;;;6.97;;
36855;SDS011;22788;51.434;6.786;2023-06-10T02:05:38;9.10;;;7.88;;
36855;SDS011;22788;51.434;6.786;2023-06-10T02:08:04;8.93;;;7.00;;
36855;SDS011;22788;51.434;6.786;2023-06-10T02:10:30;9.10;;;6.93;;
36855;SDS011;22788;51.434;6.786;2023-06-10T02:12:57;8.90;;;6.93;;
36855;SDS011;22788;51.434;6.786;2023-06-10T02:15:23;7.63;;;6.93;;
36855;SDS011;22788;51.434;6.786;2023-06-10T02:17:49;7.50;;;6.60;;
36855;SDS011;22788;51.434;6.786;2023-06-10T02:20:14;7.93;;;7.13;;
36855;SDS011;22788;51.434;6.786;2023-06-10T02:22:40;9.93;;;7.15;;
36855;SDS011;22788;51.434;6.786;2023-06-10T02:25:06;10.77;;;6.90;;
36855;SDS011;22788;51.434;6.786;2023-06-10T02:27:32;8.52;;;7.32;;
36855;SDS011;22788;51.434;6.786;2023-06-10T02:29:59;7.65;;;6.95;;
36855;SDS011;22788;51.434;6.786;2023-06-10T02:32:25;8.35;;;7.13;;
36855;SDS011;22788;51.434;6.786;2023-06-10T02:34:50;7.35;;;6.65;;
36855;SDS011;22788;51.434;6.786;2023-06-10T02:37:16;10.55;;;7.20;;
36855;SDS011;22788;51.434;6.786;2023-06-10T02:39:42;8.75;;;7.28;;
36855;SDS011;22788;51.434;6.786;2023-06-10T02:42:07;9.02;;;7.65;;
36855;SDS011;22788;51.434;6.786;2023-06-10T02:44:33;8.68;;;7.68;;
36855;SDS011;22788;51.434;6.786;2023-06-10T02:47:00;8.40;;;7.22;;
36855;SDS011;22788;51.434;6.786;2023-06-10T02:49:26;10.20;;;8.40;;
36855;SDS011;22788;51.434;6.786;2023-06-10T02:51:51;8.70;;;7.28;;
36855;SDS011;22788;51.434;6.786;2023-06-10T02:54:17;8.55;;;7.68;;
36855;SDS011;22788;51.434;6.786;2023-06-10T02:56:42;8.85;;;7.65;;
36855;SDS011;22788;51.434;6.786;2023-06-10T02:59:08;8.27;;;7.25;;
36855;SDS011;22788;51.434;6.786;2023-06-10T03:01:34;7.78;;;7.05;;
36855;SDS011;22788;51.434;6.786;2023-06-10T03:04:01;8.05;;;7.25;;
36855;SDS011;22788;51.434;6.786;2023-06-10T03:06:26;8.50;;;7.43;;
36855;SDS011;22788;51.434;6.786;2023-06-10T03:08:52;8.65;;;7.85;;
36855;SDS011;22788;51.434;6.786;2023-06-10T03:11:18;8.70;;;7.78;;
36855;SDS011;22788;51.434;6.786;2023-06-10T03:13:43;8.80;;;7.93;;
36855;SDS011;22788;51.434;6.786;2023-06-10T03:16:09;9.77;;;7.45;;
36855;SDS011;22788;51.434;6.786;2023-06-10T03:18:34;10.68;;;8.40;;
36855;SDS011;22788;51.434;6.786;2023-06-10T03:21:01;9.57;;;8.00;;
36855;SDS011;22788;51.434;6.786;2023-06-10T03:23:27;13.77;;;8.48;;
36855;SDS011;22788;51.434;6.786;2023-06-10T03:25:53;8.77;;;7.88;;
36855;SDS011;22788;51.434;6.786;2023-06-10T03:28:18;9.10;;;8.20;;
36855;SDS011;22788;51.434;6.786;2023-06-10T03:30:44;9.35;;;8.45;;
36855;SDS011;22788;51.434;6.786;2023-06-10T03:33:09;9.48;;;8.40;;
36855;SDS011;22788;51.434;6.786;2023-06-10T03:35:35;8.32;;;7.53;;
36855;SDS011;22788;51.434;6.786;2023-06-10T03:38:02;9.05;;;7.88;;
36855;SDS011;22788;51.434;6.786;2023-06-10T03:40:27;8.95;;;8.05;;
36855;SDS011;22788;51.434;6.786;2023-06-10T03:42:53;10.98;;;7.90;;
36855;SDS011;22788;51.434;6.786;2023-06-10T03:45:19;9.40;;;8.30;;
36855;SDS011;22788;51.434;6.786;2023-06-10T03:47:44;9.52;;;8.52;;
36855;SDS011;22788;51.434;6.786;2023-06-10T03:50:10;9.23;;;8.30;;
36855;SDS011;22788;51.434;6.786;2023-06-10T03:52:35;10.02;;;9.02;;
36855;SDS011;22788;51.434;6.786;2023-06-10T03:55:04;8.70;;;7.80;;
36855;SDS011;22788;51.434;6.786;2023-06-10T03:57:30;9.38;;;8.38;;
36855;SDS011;22788;51.434;6.786;2023-06-10T03:59:56;9.68;;;8.20;;
36855;SDS011;22788;51.434;6.786;2023-06-10T04:02:22;9.32;;;8.32;;
36855;SDS011;22788;51.434;6.786;2023-06-10T04:04:48;8.52;;;7.72;;
36855;SDS011;22788;51.434;6.786;2023-06-10T04:07:13;9.48;;;7.90;;
36855;SDS011;22788;51.434;6.786;2023-06-10T04:09:39;10.30;;;8.52;;
36855;SDS011;22788;51.434;6.786;2023-06-10T04:12:06;8.48;;;7.68;;
36855;SDS011;22788;51.434;6.786;2023-06-10T04:14:33;8.73;;;7.82;;
36855;SDS011;22788;51.434;6.786;2023-06-10T04:16:58;9.45;;;8.20;;
36855;SDS011;22788;51.434;6.786;2023-06-10T04:19:24;9.73;;;8.48;;
36855;SDS011;22788;51.434;6.786;2023-06-10T04:21:49;9.50;;;8.52;;
36855;SDS011;22788;51.434;6.786;2023-06-10T04:24:15;9.23;;;8.40;;
36855;SDS011;22788;51.434;6.786;2023-06-10T04:26:40;9.00;;;8.07;;
36855;SDS011;22788;51.434;6.786;2023-06-10T04:29:07;8.77;;;7.88;;
36855;SDS011;22788;51.434;6.786;2023-06-10T04:31:33;8.45;;;7.70;;
36855;SDS011;22788;51.434;6.786;2023-06-10T04:33:59;10.80;;;8.80;;
36855;SDS011;22788;51.434;6.786;2023-06-10T04:36:24;9.20;;;8.30;;
36855;SDS011;22788;51.434;6.786;2023-06-10T04:38:50;10.93;;;8.10;;
36855;SDS011;22788;51.434;6.786;2023-06-10T04:41:15;9.55;;;8.55;;
36855;SDS011;22788;51.434;6.786;2023-06-10T04:43:41;8.75;;;7.85;;
36855;SDS011;22788;51.434;6.786;2023-06-10T04:46:08;11.00;;;8.77;;
36855;SDS011;22788;51.434;6.786;2023-06-10T04:48:34;11.75;;;8.27;;
36855;SDS011;22788;51.434;6.786;2023-06-10T04:50:59;9.57;;;8.65;;
36855;SDS011;22788;51.434;6.786;2023-06-10T04:53:25;10.27;;;9.27;;
36855;SDS011;22788;51.434;6.786;2023-06-10T04:55:50;10.13;;;9.07;;
36855;SDS011;22788;51.434;6.786;2023-06-10T04:58:16;9.85;;;8.85;;
36855;SDS011;22788;51.434;6.786;2023-06-10T05:00:41;9.70;;;8.77;;
36855;SDS011;22788;51.434;6.786;2023-06-10T05:03:08;9.65;;;8.48;;
36855;SDS011;22788;51.434;6.786;2023-06-10T05:05:34;9.77;;;8.73;;
36855;SDS011;22788;51.434;6.786;2023-06-10T05:08:00;9.38;;;8.48;;
36855;SDS011;22788;51.434;6.786;2023-06-10T05:10:25;11.60;;;9.38;;
36855;SDS011;22788;51.434;6.786;2023-06-10T05:12:51;10.60;;;7.97;;
36855;SDS011;22788;51.434;6.786;2023-06-10T05:15:16;9.32;;;8.43;;
36855;SDS011;22788;51.434;6.786;2023-06-10T05:17:42;9.25;;;8.35;;
36855;SDS011;22788;51.434;6.786;2023-06-10T05:20:10;9.23;;;8.05;;
36855;SDS011;22788;51.434;6.786;2023-06-10T05:22:36;9.23;;;8.32;;
36855;SDS011;22788;51.434;6.786;2023-06-10T05:25:02;10.55;;;8.15;;
36855;SDS011;22788;51.434;6.786;2023-06-10T05:27:27;9.15;;;8.23;;
36855;SDS011;22788;51.434;6.786;2023-06-10T05:29:53;10.73;;;9.50;;
36855;SDS011;22788;51.434;6.786;2023-06-10T05:32:19;9.80;;;8.90;;
36855;SDS011;22788;51.434;6.786;2023-06-10T05:34:44;13.35;;;9.98;;
36855;SDS011;22788;51.434;6.786;2023-06-10T05:37:12;10.20;;;8.65;;
36855;SDS011;22788;51.434;6.786;2023-06-10T05:39:38;10.32;;;8.38;;
36855;SDS011;22788;51.434;6.786;2023-06-10T05:42:04;10.68;;;9.00;;
36855;SDS011;22788;51.434;6.786;2023-06-10T05:44:30;10.15;;;8.98;;
36855;SDS011;22788;51.434;6.786;2023-06-10T05:46:55;10.27;;;8.38;;
36855;SDS011;22788;51.434;6.786;2023-06-10T05:49:21;9.57;;;8.55;;
36855;SDS011;22788;51.434;6.786;2023-06-10T05:51:47;9.20;;;7.78;;
36855;SDS011;22788;51.434;6.786;2023-06-10T05:54:13;9.75;;;8.73;;
36855;SDS011;22788;51.434;6.786;2023-06-10T05:56:39;9.07;;;8.18;;
36855;SDS011;22788;51.434;6.786;2023-06-10T05:59:05;11.05;;;9.15;;
36855;SDS011;22788;51.434;6.786;2023-06-10T06:01:30;9.00;;;8.10;;
36855;SDS011;22788;51.434;6.786;2023-06-10T06:03:56;9.02;;;8.05;;
36855;SDS011;22788;51.434;6.786;2023-06-10T06:06:21;9.05;;;7.95;;
36855;SDS011;22788;51.434;6.786;2023-06-10T06:08:47;8.15;;;7.35;;
36855;SDS011;22788;51.434;6.786;2023-06-10T06:11:14;9.45;;;8.40;;
36855;SDS011;22788;51.434;6.786;2023-06-10T06:13:40;8.77;;;7.97;;
36855;SDS011;22788;51.434;6.786;2023-06-10T06:16:05;8.30;;;7.60;;
36855;SDS011;22788;51.434;6.786;2023-06-10T06:18:31;9.52;;;7.90;;
36855;SDS011;22788;51.434;6.786;2023-06-10T06:20:57;8.63;;;7.83;;
36855;SDS011;22788;51.434;6.786;2023-06-10T06:23:22;12.82;;;8.45;;
36855;SDS011;22788;51.434;6.786;2023-06-10T06:25:48;14.93;;;10.13;;
36855;SDS011;22788;51.434;6.786;2023-06-10T06:28:15;14.00;;;8.70;;
36855;SDS011;22788;51.434;6.786;2023-06-10T06:30:41;12.93;;;8.07;;
36855;SDS011;22788;51.434;6.786;2023-06-10T06:33:06;13.02;;;8.25;;
36855;SDS011;22788;51.434;6.786;2023-06-10T06:35:32;13.10;;;8.23;;
36855;SDS011;22788;51.434;6.786;2023-06-10T06:37:58;11.32;;;8.40;;
36855;SDS011;22788;51.434;6.786;2023-06-10T06:40:24;10.80;;;7.90;;
36855;SDS011;22788;51.434;6.786;2023-06-10T06:42:49;10.93;;;8.18;;
36855;SDS011;22788;51.434;6.786;2023-06-10T06:45:16;8.77;;;7.63;;
36855;SDS011;22788;51.434;6.786;2023-06-10T06:47:42;9.77;;;8.07;;
36855;SDS011;22788;51.434;6.786;2023-06-10T06:50:08;15.20;;;8.02;;
36855;SDS011;22788;51.434;6.786;2023-06-10T06:52:34;10.32;;;7.65;;
36855;SDS011;22788;51.434;6.786;2023-06-10T06:55:00;10.25;;;7.93;;
36855;SDS011;22788;51.434;6.786;2023-06-10T06:57:25;9.88;;;7.07;;
36855;SDS011;22788;51.434;6.786;2023-06-10T06:59:51;8.10;;;6.97;;
36855;SDS011;22788;51.434;6.786;2023-06-10T07:02:18;9.50;;;7.70;;
36855;SDS011;22788;51.434;6.786;2023-06-10T07:04:43;9.65;;;7.05;;
36855;SDS011;22788;51.434;6.786;2023-06-10T07:07:09;8.40;;;7.13;;
36855;SDS011;22788;51.434;6.786;2023-06-10T07:09:34;8.80;;;7.43;;
36855;SDS011;22788;51.434;6.786;2023-06-10T07:12:00;9.30;;;7.13;;
36855;SDS011;22788;51.434;6.786;2023-06-10T07:14:26;8.00;;;6.88;;
36855;SDS011;22788;51.434;6.786;2023-06-10T07:16:51;8.57;;;7.07;;
36855;SDS011;22788;51.434;6.786;2023-06-10T07:19:18;9.35;;;6.57;;
36855;SDS011;22788;51.434;6.786;2023-06-10T07:21:44;8.25;;;6.55;;
36855;SDS011;22788;51.434;6.786;2023-06-10T07:24:09;7.45;;;6.53;;
36855;SDS011;22788;51.434;6.786;2023-06-10T07:26:35;8.23;;;6.75;;
36855;SDS011;22788;51.434;6.786;2023-06-10T07:29:01;9.95;;;7.30;;
36855;SDS011;22788;51.434;6.786;2023-06-10T07:31:26;9.75;;;6.80;;
36855;SDS011;22788;51.434;6.786;2023-06-10T07:33:52;7.40;;;6.70;;
36855;SDS011;22788;51.434;6.786;2023-06-10T07:36:19;7.93;;;6.47;;
36855;SDS011;22788;51.434;6.786;2023-06-10T07:38:44;8.10;;;6.95;;
36855;SDS011;22788;51.434;6.786;2023-06-10T07:41:10;9.48;;;6.57;;
36855;SDS011;22788;51.434;6.786;2023-06-10T07:43:36;8.38;;;6.05;;
36855;SDS011;22788;51.434;6.786;2023-06-10T07:46:01;9.60;;;6.53;;
36855;SDS011;22788;51.434;6.786;2023-06-10T07:48:27;6.60;;;5.93;;
36855;SDS011;22788;51.434;6.786;2023-06-10T07:50:53;9.10;;;6.93;;
36855;SDS011;22788;51.434;6.786;2023-06-10T07:53:20;9.63;;;5.97;;
36855;SDS011;22788;51.434;6.786;2023-06-10T07:55:45;6.93;;;5.93;;
36855;SDS011;22788;51.434;6.786;2023-06-10T07:58:11;7.32;;;6.30;;
36855;SDS011;22788;51.434;6.786;2023-06-10T08:00:36;9.43;;;6.65;;
36855;SDS011;22788;51.434;6.786;2023-06-10T08:03:02;8.25;;;5.75;;
36855;SDS011;22788;51.434;6.786;2023-06-10T08:05:28;9.45;;;6.53;;
36855;SDS011;22788;51.434;6.786;2023-06-10T08:07:53;7.15;;;6.10;;
36855;SDS011;22788;51.434;6.786;2023-06-10T08:10:20;8.88;;;6.07;;
36855;SDS011;22788;51.434;6.786;2023-06-10T08:12:46;7.85;;;6.00;;
36855;SDS011;22788;51.434;6.786;2023-06-10T08:15:11;8.63;;;6.20;;
36855;SDS011;22788;51.434;6.786;2023-06-10T08:17:37;8.48;;;5.82;;
36855;SDS011;22788;51.434;6.786;2023-06-10T08:20:03;10.98;;;6.10;;
36855;SDS011;22788;51.434;6.786;2023-06-10T08:22:29;6.88;;;5.82;;
36855;SDS011;22788;51.434;6.786;2023-06-10T08:24:55;7.55;;;6.53;;
36855;SDS011;22788;51.434;6.786;2023-06-10T08:27:22;11.75;;;6.50;;
36855;SDS011;22788;51.434;6.786;2023-06-10T08:29:48;9.25;;;6.47;;
36855;SDS011;22788;51.434;6.786;2023-06-10T08:32:13;8.40;;;5.85;;
36855;SDS011;22788;51.434;6.786;2023-06-10T08:34:39;7.65;;;6.05;;
36855;SDS011;22788;51.434;6.786;2023-06-10T08:37:05;6.95;;;6.20;;
36855;SDS011;22788;51.434;6.786;2023-06-10T08:39:32;8.55;;;6.13;;
36855;SDS011;22788;51.434;6.786;2023-06-10T08:42:00;11.50;;;6.25;;
36855;SDS011;22788;51.434;6.786;2023-06-10T08:44:36;8.30;;;5.70;;
36855;SDS011;22788;51.434;6.786;2023-06-10T08:47:02;6.68;;;6.03;;
36855;SDS011;22788;51.434;6.786;2023-06-10T08:49:38;10.02;;;6.55;;
36855;SDS011;22788;51.434;6.786;2023-06-10T08:52:08;10.40;;;5.75;;
36855;SDS011;22788;51.434;6.786;2023-06-10T08:54:39;6.72;;;5.97;;
36855;SDS011;22788;51.434;6.786;2023-06-10T08:57:08;8.32;;;6.38;;
36855;SDS011;22788;51.434;6.786;2023-06-10T08:59:35;7.13;;;5.85;;
36855;SDS011;22788;51.434;6.786;2023-06-10T09:02:02;7.50;;;5.80;;
36855;SDS011;22788;51.434;6.786;2023-06-10T09:04:29;6.68;;;5.60;;
36855;SDS011;22788;51.434;6.786;2023-06-10T09:06:55;6.35;;;5.72;;
36855;SDS011;22788;51.434;6.786;2023-06-10T09:09:22;6.82;;;6.13;;
36855;SDS011;22788;51.434;6.786;2023-06-10T09:11:49;6.47;;;5.85;;
36855;SDS011;22788;51.434;6.786;2023-06-10T09:14:14;8.93;;;5.93;;
36855;SDS011;22788;51.434;6.786;2023-06-10T09:16:41;7.68;;;5.97;;
36855;SDS011;22788;51.434;6.786;2023-06-10T09:19:07;6.82;;;5.57;;
36855;SDS011;22788;51.434;6.786;2023-06-10T09:21:33;9.57;;;6.30;;
36855;SDS011;22788;51.434;6.786;2023-06-10T09:23:59;7.68;;;5.57;;
36855;SDS011;22788;51.434;6.786;2023-06-10T09:26:27;6.43;;;5.68;;
36855;SDS011;22788;51.434;6.786;2023-06-10T09:28:57;7.55;;;5.90;;
36855;SDS011;22788;51.434;6.786;2023-06-10T09:31:27;8.43;;;5.72;;
36855;SDS011;22788;51.434;6.786;2023-06-10T09:33:54;8.63;;;5.88;;
36855;SDS011;22788;51.434;6.786;2023-06-10T09:36:29;7.78;;;5.78;;
36855;SDS011;22788;51.434;6.786;2023-06-10T09:38:56;8.63;;;6.10;;
36855;SDS011;22788;51.434;6.786;2023-06-10T09:41:21;6.47;;;5.82;;
36855;SDS011;22788;51.434;6.786;2023-06-10T09:43:47;6.45;;;5.82;;
36855;SDS011;22788;51.434;6.786;2023-06-10T09:46:16;7.82;;;6.13;;
36855;SDS011;22788;51.434;6.786;2023-06-10T09:48:41;9.68;;;5.70;;
36855;SDS011;22788;51.434;6.786;2023-06-10T09:51:09;6.38;;;5.78;;
36855;SDS011;22788;51.434;6.786;2023-06-10T09:53:35;8.48;;;6.32;;
36855;SDS011;22788;51.434;6.786;2023-06-10T09:56:01;8.52;;;6.78;;
36855;SDS011;22788;51.434;6.786;2023-06-10T09:58:36;7.57;;;5.90;;
36855;SDS011;22788;51.434;6.786;2023-06-10T10:01:06;6.22;;;5.63;;
36855;SDS011;22788;51.434;6.786;2023-06-10T10:03:35;7.88;;;6.05;;
36855;SDS011;22788;51.434;6.786;2023-06-10T10:06:10;7.70;;;5.88;;
36855;SDS011;22788;51.434;6.786;2023-06-10T10:08:36;7.65;;;5.47;;
36855;SDS011;22788;51.434;6.786;2023-06-10T10:11:02;7.60;;;6.00;;
36855;SDS011;22788;51.434;6.786;2023-06-10T10:13:28;10.13;;;5.90;;
36855;SDS011;22788;51.434;6.786;2023-06-10T10:15:59;8.82;;;5.95;;
36855;SDS011;22788;51.434;6.786;2023-06-10T10:18:27;6.22;;;5.63;;
36855;SDS011;22788;51.434;6.786;2023-06-10T10:20:56;7.05;;;6.35;;
36855;SDS011;22788;51.434;6.786;2023-06-10T10:23:29;15.40;;;6.20;;
36855;SDS011;22788;51.434;6.786;2023-06-10T10:26:00;8.18;;;6.13;;
36855;SDS011;22788;51.434;6.786;2023-06-10T10:28:29;7.50;;;6.07;;
36855;SDS011;22788;51.434;6.786;2023-06-10T10:31:07;7.07;;;6.07;;
36855;SDS011;22788;51.434;6.786;2023-06-10T10:33:36;6.75;;;6.00;;
36855;SDS011;22788;51.434;6.786;2023-06-10T10:36:10;7.20;;;6.10;;
36855;SDS011;22788;51.434;6.786;2023-06-10T10:38:38;6.45;;;5.85;;
36855;SDS011;22788;51.434;6.786;2023-06-10T10:41:04;9.48;;;6.00;;
36855;SDS011;22788;51.434;6.786;2023-06-10T10:43:30;6.93;;;5.90;;
36855;SDS011;22788;51.434;6.786;2023-06-10T10:45:59;7.75;;;6.00;;
36855;SDS011;22788;51.434;6.786;2023-06-10T10:48:26;10.13;;;6.40;;
36855;SDS011;22788;51.434;6.786;2023-06-10T10:50:58;8.18;;;5.85;;
36855;SDS011;22788;51.434;6.786;2023-06-10T10:53:24;8.50;;;6.40;;
36855;SDS011;22788;51.434;6.786;2023-06-10T10:55:58;6.75;;;6.10;;
36855;SDS011;22788;51.434;6.786;2023-06-10T10:58:24;7.72;;;6.10;;
36855;SDS011;22788;51.434;6.786;2023-06-10T11:00:50;7.03;;;5.82;;
36855;SDS011;22788;51.434;6.786;2023-06-10T11:03:16;7.50;;;6.63;;
36855;SDS011;22788;51.434;6.786;2023-06-10T11:05:42;8.13;;;6.53;;
36855;SDS011;22788;51.434;6.786;2023-06-10T11:08:08;6.60;;;5.85;;
36855;SDS011;22788;51.434;6.786;2023-06-10T11:10:35;7.63;;;6.55;;
36855;SDS011;22788;51.434;6.786;2023-06-10T11:13:07;7.50;;;6.65;;
36855;SDS011;22788;51.434;6.786;2023-06-10T11:15:37;6.90;;;6.20;;
36855;SDS011;22788;51.434;6.786;2023-06-10T11:18:07;6.05;;;5.47;;
36855;SDS011;22788;51.434;6.786;2023-06-10T11:23:40;9.88;;;6.70;;
36855;SDS011;22788;51.434;6.786;2023-06-10T11:26:09;8.45;;;6.45;;
36855;SDS011;22788;51.434;6.786;2023-06-10T11:28:38;8.25;;;5.95;;
36855;SDS011;22788;51.434;6.786;2023-06-10T11:31:03;11.05;;;6.63;;
36855;SDS011;22788;51.434;6.786;2023-06-10T11:33:29;9.35;;;6.80;;
36855;SDS011;22788;51.434;6.786;2023-06-10T11:35:56;7.68;;;6.50;;
36855;SDS011;22788;51.434;6.786;2023-06-10T11:38:21;7.40;;;6.43;;
36855;SDS011;22788;51.434;6.786;2023-06-10T11:40:47;8.25;;;6.10;;
36855;SDS011;22788;51.434;6.786;2023-06-10T11:43:14;10.15;;;7.43;;
36855;SDS011;22788;51.434;6.786;2023-06-10T11:45:42;11.85;;;7.20;;
36855;SDS011;22788;51.434;6.786;2023-06-10T11:48:09;14.13;;;7.77;;
36855;SDS011;22788;51.434;6.786;2023-06-10T11:50:35;8.95;;;7.25;;
36855;SDS011;22788;51.434;6.786;2023-06-10T11:53:01;12.63;;;7.00;;
36855;SDS011;22788;51.434;6.786;2023-06-10T11:55:39;13.43;;;6.80;;
36855;SDS011;22788;51.434;6.786;2023-06-10T11:58:12;8.35;;;6.90;;
36855;SDS011;22788;51.434;6.786;2023-06-10T12:00:44;6.93;;;6.32;;
36855;SDS011;22788;51.434;6.786;2023-06-10T12:03:11;10.32;;;7.07;;
36855;SDS011;22788;51.434;6.786;2023-06-10T12:05:36;10.38;;;6.68;;
36855;SDS011;22788;51.434;6.786;2023-06-10T12:08:08;8.68;;;6.22;;
36855;SDS011;22788;51.434;6.786;2023-06-10T12:10:38;11.02;;;7.03;;
36855;SDS011;22788;51.434;6.786;2023-06-10T12:13:04;8.23;;;6.75;;
36855;SDS011;22788;51.434;6.786;2023-06-10T12:15:30;12.07;;;7.07;;
36855;SDS011;22788;51.434;6.786;2023-06-10T12:17:57;12.75;;;6.65;;
36855;SDS011;22788;51.434;6.786;2023-06-10T12:20:26;13.55;;;6.70;;
36855;SDS011;22788;51.434;6.786;2023-06-10T12:22:53;9.43;;;6.88;;
36855;SDS011;22788;51.434;6.786;2023-06-10T12:25:23;10.57;;;6.30;;
36855;SDS011;22788;51.434;6.786;2023-06-10T12:27:50;10.43;;;7.00;;
36855;SDS011;22788;51.434;6.786;2023-06-10T12:30:18;7.47;;;6.78;;
36855;SDS011;22788;51.434;6.786;2023-06-10T12:32:45;7.57;;;6.75;;
36855;SDS011;22788;51.434;6.786;2023-06-10T12:35:12;9.68;;;7.30;;
36855;SDS011;22788;51.434;6.786;2023-06-10T12:37:41;6.60;;;6.00;;
36855;SDS011;22788;51.434;6.786;2023-06-10T12:40:07;9.43;;;6.63;;
36855;SDS011;22788;51.434;6.786;2023-06-10T12:42:33;10.45;;;7.05;;
36855;SDS011;22788;51.434;6.786;2023-06-10T12:45:00;9.93;;;7.78;;
36855;SDS011;22788;51.434;6.786;2023-06-10T12:47:29;10.15;;;6.38;;
36855;SDS011;22788;51.434;6.786;2023-06-10T12:49:55;8.95;;;7.32;;
36855;SDS011;22788;51.434;6.786;2023-06-10T12:52:22;9.27;;;7.25;;
36855;SDS011;22788;51.434;6.786;2023-06-10T12:54:48;7.70;;;6.57;;
36855;SDS011;22788;51.434;6.786;2023-06-10T12:57:13;8.43;;;7.20;;
36855;SDS011;22788;51.434;6.786;2023-06-10T12:59:39;7.95;;;7.15;;
36855;SDS011;22788;51.434;6.786;2023-06-10T13:02:05;7.82;;;6.97;;
36855;SDS011;22788;51.434;6.786;2023-06-10T13:04:31;7.80;;;6.90;;
36855;SDS011;22788;51.434;6.786;2023-06-10T13:06:56;7.75;;;6.97;;
36855;SDS011;22788;51.434;6.786;2023-06-10T13:09:23;8.35;;;7.15;;
36855;SDS011;22788;51.434;6.786;2023-06-10T13:11:49;7.95;;;6.72;;
36855;SDS011;22788;51.434;6.786;2023-06-10T13:14:14;11.73;;;7.07;;
36855;SDS011;22788;51.434;6.786;2023-06-10T13:16:40;9.98;;;7.32;;
36855;SDS011;22788;51.434;6.786;2023-06-10T13:19:06;7.35;;;6.65;;
36855;SDS011;22788;51.434;6.786;2023-06-10T13:21:31;7.88;;;6.90;;
36855;SDS011;22788;51.434;6.786;2023-06-10T13:23:57;7.55;;;6.95;;
36855;SDS011;22788;51.434;6.786;2023-06-10T13:26:24;9.45;;;7.00;;
36855;SDS011;22788;51.434;6.786;2023-06-10T13:28:50;8.38;;;7.15;;
36855;SDS011;22788;51.434;6.786;2023-06-10T13:31:16;10.48;;;6.90;;
36855;SDS011;22788;51.434;6.786;2023-06-10T13:33:41;8.35;;;6.82;;
36855;SDS011;22788;51.434;6.786;2023-06-10T13:36:07;9.93;;;7.43;;
36855;SDS011;22788;51.434;6.786;2023-06-10T13:38:33;9.48;;;7.15;;
36855;SDS011;22788;51.434;6.786;2023-06-10T13:40:58;7.75;;;6.80;;
36855;SDS011;22788;51.434;6.786;2023-06-10T13:43:25;7.60;;;6.90;;
36855;SDS011;22788;51.434;6.786;2023-06-10T13:45:51;9.45;;;7.28;;
36855;SDS011;22788;51.434;6.786;2023-06-10T13:48:16;7.95;;;7.15;;
36855;SDS011;22788;51.434;6.786;2023-06-10T13:50:42;8.13;;;7.22;;
36855;SDS011;22788;51.434;6.786;2023-06-10T13:53:08;7.68;;;6.88;;
36855;SDS011;22788;51.434;6.786;2023-06-10T13:55:33;7.80;;;7.10;;
36855;SDS011;22788;51.434;6.786;2023-06-10T13:57:59;9.80;;;7.03;;
36855;SDS011;22788;51.434;6.786;2023-06-10T14:00:26;7.82;;;6.93;;
36855;SDS011;22788;51.434;6.786;2023-06-10T14:02:52;9.43;;;7.38;;
36855;SDS011;22788;51.434;6.786;2023-06-10T14:05:18;12.63;;;7.03;;
36855;SDS011;22788;51.434;6.786;2023-06-10T14:07:44;10.18;;;7.25;;
36855;SDS011;22788;51.434;6.786;2023-06-10T14:10:09;9.00;;;7.15;;
36855;SDS011;22788;51.434;6.786;2023-06-10T14:12:35;7.90;;;7.20;;
36855;SDS011;22788;51.434;6.786;2023-06-10T14:15:01;7.82;;;7.13;;
36855;SDS011;22788;51.434;6.786;2023-06-10T14:17:28;8.10;;;6.82;;
36855;SDS011;22788;51.434;6.786;2023-06-10T14:19:53;11.68;;;8.20;;
36855;SDS011;22788;51.434;6.786;2023-06-10T14:22:19;8.57;;;7.67;;
36855;SDS011;22788;51.434;6.786;2023-06-10T14:24:44;9.93;;;6.97;;
36855;SDS011;22788;51.434;6.786;2023-06-10T14:27:10;8.15;;;7.28;;
36855;SDS011;22788;51.434;6.786;2023-06-10T14:29:36;8.95;;;7.82;;
36855;SDS011;22788;51.434;6.786;2023-06-10T14:32:01;7.90;;;6.90;;
36855;SDS011;22788;51.434;6.786;2023-06-10T14:34:28;8.63;;;7.82;;
36855;SDS011;22788;51.434;6.786;2023-06-10T14:36:54;8.15;;;7.43;;
36855;SDS011;22788;51.434;6.786;2023-06-10T14:39:20;9.40;;;6.63;;
36855;SDS011;22788;51.434;6.786;2023-06-10T14:41:45;8.10;;;7.10;;
36855;SDS011;22788;51.434;6.786;2023-06-10T14:44:11;8.40;;;7.50;;